Time;durP1;ratioP1;P1;durP2;ratioP2;P2;SDS_P1;SDS_P2;PMS_P1;PMS_P2;Temp;Humidity;BMP_temperature;BMP_pressure;BME280_temperature;BME280_humidity;BME280_pressure;Samples;Min_cycle;Max_cycle;Signal;HPM_P1;HPM_P2
2022/11/23 00:00:22;;;;;;;3.47;2.45;;;;;;;4.54;86.37;97242.66;5020376;28;20055;-81
2022/11/23 00:02:56;;;;;;;6.90;2.47;;;;;;;4.69;86.10;97271.09;5017009;28;20034;-82
2022/11/23 00:05:21;;;;;;;4.35;2.17;;;;;;;4.77;86.45;97267.19;5020647;28;20416;-81
2022/11/23 00:07:47;;;;;;;6.15;2.83;;;;;;;4.79;86.80;97268.56;5022512;28;20029;-81
2022/11/23 00:10:12;;;;;;;6.97;3.00;;;;;;;4.60;87.56;97263.88;5025799;28;20033;-82
2022/11/23 00:12:38;;;;;;;5.88;3.05;;;;;;;4.56;88.46;97260.94;5017487;28;20171;-81
2022/11/23 00:15:04;;;;;;;4.78;2.35;;;;;;;4.96;86.01;97271.06;5021084;28;20028;-82
2022/11/23 00:17:30;;;;;;;4.00;2.53;;;;;;;4.85;86.49;97277.34;5010068;28;20033;-81
2022/11/23 00:19:56;;;;;;;5.82;3.25;;;;;;;4.64;87.04;97252.56;5027365;28;20543;-81
2022/11/23 00:22:21;;;;;;;4.65;2.60;;;;;;;4.83;86.24;97252.97;5008642;28;20549;-81
2022/11/23 00:24:46;;;;;;;8.68;3.33;;;;;;;5.01;85.66;97276.41;5023483;28;20037;-82
2022/11/23 00:27:12;;;;;;;4.82;2.47;;;;;;;4.97;85.94;97262.09;5027156;28;20117;-81
2022/11/23 00:29:37;;;;;;;3.75;2.55;;;;;;;5.04;85.19;97273.28;5028607;28;20059;-82
2022/11/23 00:32:03;;;;;;;4.18;3.05;;;;;;;4.68;88.10;97263.41;5026247;28;20037;-82
2022/11/23 00:34:28;;;;;;;3.47;2.50;;;;;;;4.93;86.03;97258.38;5024417;28;20548;-81
2022/11/23 00:36:54;;;;;;;2.60;2.22;;;;;;;5.03;85.59;97264.53;5011305;28;20051;-82
2022/11/23 00:39:19;;;;;;;4.72;3.25;;;;;;;4.83;87.05;97255.63;5004345;28;20041;-82
2022/11/23 00:41:44;;;;;;;2.95;2.65;;;;;;;4.81;86.97;97245.31;5027213;28;20049;-81
2022/11/23 00:44:10;;;;;;;4.68;2.67;;;;;;;5.00;85.80;97245.75;4996693;28;20061;-82
2022/11/23 00:46:35;;;;;;;5.28;3.33;;;;;;;5.05;85.84;97259.00;4994221;28;20493;-82
2022/11/23 00:49:00;;;;;;;6.00;3.05;;;;;;;4.86;86.65;97255.94;5026110;28;20037;-82
2022/11/23 00:51:29;;;;;;;3.40;2.38;;;;;;;4.81;86.54;97253.25;5023530;28;20034;-82
2022/11/23 00:53:55;;;;;;;2.38;2.17;;;;;;;4.80;86.10;97251.66;5023838;28;20301;-81
2022/11/23 00:56:20;;;;;;;5.45;3.20;;;;;;;4.63;86.97;97250.94;5025970;28;20037;-82
2022/11/23 00:58:50;;;;;;;5.53;2.95;;;;;;;4.51;87.92;97248.47;5023400;28;20139;-82
2022/11/23 01:01:18;;;;;;;5.20;2.15;;;;;;;4.66;87.14;97258.38;5022692;28;20378;-81
2022/11/23 01:03:49;;;;;;;5.28;2.40;;;;;;;4.65;87.62;97264.72;5022520;28;20034;-81
2022/11/23 01:06:18;;;;;;;4.95;3.38;;;;;;;4.40;88.17;97256.53;5023556;28;20048;-81
2022/11/23 01:08:48;;;;;;;5.47;2.63;;;;;;;4.62;87.44;97270.50;5021958;28;20029;-81
2022/11/23 01:11:13;;;;;;;6.07;2.83;;;;;;;4.42;87.84;97244.66;5021050;28;20041;-82
2022/11/23 01:13:40;;;;;;;3.55;2.55;;;;;;;4.70;87.25;97272.69;5022824;28;20053;-82
2022/11/23 01:16:26;;;;;;;5.90;2.40;;;;;;;4.67;86.65;97260.00;5021646;28;20079;-82
2022/11/23 01:18:53;;;;;;;6.15;2.90;;;;;;;4.68;86.52;97268.69;5019121;28;20052;-82
2022/11/23 01:21:18;;;;;;;4.32;2.47;;;;;;;4.69;86.99;97271.09;5022873;28;20075;-81
2022/11/23 01:23:43;;;;;;;7.93;2.00;;;;;;;4.66;86.94;97254.94;5025098;28;20470;-82
2022/11/23 01:26:09;;;;;;;3.42;2.53;;;;;;;4.75;86.32;97272.75;5023892;28;20030;-82
2022/11/23 01:28:37;;;;;;;3.05;2.67;;;;;;;4.75;86.84;97280.69;5024081;28;20038;-82
2022/11/23 01:31:09;;;;;;;4.07;2.72;;;;;;;4.77;85.81;97283.06;5017942;28;20076;-81
2022/11/23 01:33:35;;;;;;;7.53;2.50;;;;;;;4.68;86.37;97280.06;5012814;28;20464;-81
2022/11/23 01:36:07;;;;;;;4.55;2.95;;;;;;;4.52;86.74;97270.41;5000625;28;20048;-82
2022/11/23 01:38:32;;;;;;;3.85;2.10;;;;;;;4.53;86.88;97285.19;5017811;28;20045;-81
2022/11/23 01:40:58;;;;;;;3.00;2.20;;;;;;;4.54;86.60;97286.81;5020412;28;20041;-81
2022/11/23 01:43:23;;;;;;;6.60;2.83;;;;;;;4.35;86.53;97270.47;5018423;28;20033;-81
2022/11/23 01:45:51;;;;;;;5.45;2.20;;;;;;;4.46;87.26;97288.03;5006487;28;20028;-82
2022/11/23 01:48:24;;;;;;;12.48;3.15;;;;;;;4.46;86.42;97274.03;5016612;28;20025;-82
2022/11/23 01:50:51;;;;;;;4.72;2.00;;;;;;;4.59;86.64;97286.06;5020330;28;20124;-81
2022/11/23 01:53:18;;;;;;;3.20;2.42;;;;;;;4.35;86.26;97275.75;5021424;28;20045;-81
2022/11/23 01:55:46;;;;;;;5.90;2.88;;;;;;;4.43;86.56;97291.16;4985870;28;20033;-81
2022/11/23 01:58:14;;;;;;;8.52;2.95;;;;;;;4.48;86.59;97283.28;5019014;28;20033;-81
2022/11/23 02:00:40;;;;;;;3.60;2.55;;;;;;;4.50;86.34;97293.59;5020460;28;20035;-81
2022/11/23 02:03:06;;;;;;;4.15;2.78;;;;;;;4.59;86.60;97286.84;5008266;28;20481;-82
2022/11/23 02:05:42;;;;;;;6.88;2.80;;;;;;;4.41;86.46;97285.31;5022508;28;20067;-81
2022/11/23 02:08:08;;;;;;;4.78;2.30;;;;;;;4.46;86.89;97282.75;5021776;28;20033;-81
2022/11/23 02:10:35;;;;;;;5.00;3.00;;;;;;;4.32;86.61;97265.69;5014456;28;20037;-81
2022/11/23 02:13:06;;;;;;;9.57;3.08;;;;;;;4.27;87.12;97262.19;5017855;28;20026;-81
2022/11/23 02:15:34;;;;;;;3.65;2.55;;;;;;;4.31;87.13;97289.69;5022689;28;20112;-81
2022/11/23 02:18:02;;;;;;;4.13;3.17;;;;;;;4.20;87.57;97280.84;5025649;28;20025;-81
2022/11/23 02:20:28;;;;;;;5.40;2.58;;;;;;;4.23;87.01;97269.00;5020030;28;20037;-81
2022/11/23 02:23:02;;;;;;;7.53;3.00;;;;;;;4.20;87.03;97280.06;5006779;28;20029;-81
2022/11/23 02:25:43;;;;;;;4.90;3.20;;;;;;;4.23;87.52;97274.28;5021855;28;20077;-81
2022/11/23 02:28:15;;;;;;;6.93;3.40;;;;;;;4.18;87.37;97279.50;5023607;28;20025;-82
2022/11/23 02:30:43;;;;;;;6.68;2.33;;;;;;;4.22;86.96;97281.41;5021975;28;20108;-81
2022/11/23 02:33:08;;;;;;;5.25;2.85;;;;;;;4.23;87.73;97275.09;5022941;28;20064;-81
2022/11/23 02:35:34;;;;;;;10.35;3.20;;;;;;;4.17;87.52;97275.28;5006548;28;20396;-81
2022/11/23 02:38:04;;;;;;;6.93;2.83;;;;;;;4.19;87.15;97276.63;5023387;28;20494;-81
2022/11/23 02:40:34;;;;;;;4.07;3.45;;;;;;;4.14;87.16;97262.56;5004882;28;20021;-81
2022/11/23 02:43:00;;;;;;;3.08;2.60;;;;;;;4.19;87.44;97271.38;5025006;28;20052;-81
2022/11/23 02:45:34;;;;;;;3.75;3.08;;;;;;;4.33;87.64;97279.69;5016286;28;20520;-81
2022/11/23 02:48:00;;;;;;;4.70;2.85;;;;;;;4.31;87.39;97277.28;5018519;28;20037;-81
2022/11/23 02:50:25;;;;;;;4.68;3.20;;;;;;;4.18;87.54;97261.84;5004146;28;20033;-81
2022/11/23 02:52:50;;;;;;;8.70;3.80;;;;;;;4.18;87.68;97253.09;5020278;28;20443;-81
2022/11/23 02:55:16;;;;;;;6.45;3.40;;;;;;;4.27;87.12;97263.00;5019858;28;20028;-82
2022/11/23 02:57:41;;;;;;;8.23;2.97;;;;;;;4.39;87.31;97282.13;5019926;28;20057;-82
2022/11/23 03:00:07;;;;;;;8.48;3.70;;;;;;;4.37;86.84;97280.78;5019732;28;20421;-82
2022/11/23 03:02:33;;;;;;;6.30;3.75;;;;;;;3.96;87.64;97226.72;5019828;28;20037;-82
2022/11/23 03:04:58;;;;;;;7.90;3.25;;;;;;;4.26;86.84;97264.03;5005481;28;20026;-81
2022/11/23 03:07:24;;;;;;;8.02;3.25;;;;;;;4.25;87.53;97272.22;5020961;28;20102;-82
2022/11/23 03:09:49;;;;;;;4.57;2.83;;;;;;;4.20;87.13;97259.75;5005176;28;20025;-82
2022/11/23 03:12:15;;;;;;;6.40;2.97;;;;;;;4.29;87.61;97282.03;4991280;28;20041;-82
2022/11/23 03:14:41;;;;;;;4.93;3.08;;;;;;;4.35;87.62;97278.41;5003844;28;20382;-82
2022/11/23 03:17:06;;;;;;;4.68;2.63;;;;;;;4.33;87.41;97272.56;5026114;28;20042;-82
2022/11/23 03:19:31;;;;;;;6.28;3.08;;;;;;;4.28;87.25;97279.66;5022322;28;20112;-81
2022/11/23 03:21:57;;;;;;;4.82;3.03;;;;;;;4.35;87.51;97281.03;5023029;28;20065;-81
2022/11/23 03:24:22;;;;;;;6.95;3.15;;;;;;;4.31;87.23;97279.94;5026433;28;20040;-81
2022/11/23 03:26:48;;;;;;;6.68;3.38;;;;;;;4.18;86.94;97271.59;5025763;28;22233;-81
2022/11/23 03:29:14;;;;;;;5.90;2.80;;;;;;;4.27;87.54;97272.75;5025314;28;20576;-81
2022/11/23 03:31:39;;;;;;;7.03;3.13;;;;;;;4.15;86.49;97256.25;4988260;28;20478;-81
2022/11/23 03:34:05;;;;;;;12.10;3.58;;;;;;;4.14;86.91;97259.94;5017270;28;20109;-82
2022/11/23 03:36:30;;;;;;;5.25;3.03;;;;;;;4.21;87.58;97277.19;5004617;28;20129;-81
2022/11/23 03:38:55;;;;;;;15.13;3.42;;;;;;;4.19;87.21;97271.38;5003226;28;20041;-82
2022/11/23 03:41:21;;;;;;;11.63;3.72;;;;;;;4.07;86.90;97273.31;5020286;28;20033;-81
2022/11/23 03:43:46;;;;;;;4.88;2.30;;;;;;;4.06;87.65;97281.47;5021740;28;20616;-81
2022/11/23 03:46:11;;;;;;;7.28;2.88;;;;;;;4.16;87.47;97287.69;5006368;28;20036;-82
2022/11/23 03:48:37;;;;;;;7.20;3.13;;;;;;;4.09;87.34;97281.78;5004638;28;20033;-81
2022/11/23 03:51:02;;;;;;;7.63;2.67;;;;;;;4.13;86.93;97292.66;4999498;28;20040;-81
2022/11/23 03:53:28;;;;;;;3.45;2.95;;;;;;;4.11;86.63;97270.97;5023023;28;20030;-81
2022/11/23 03:55:56;;;;;;;4.53;2.53;;;;;;;4.15;86.50;97272.09;5002787;28;20141;-81
2022/11/23 03:58:21;;;;;;;4.35;2.53;;;;;;;4.15;86.29;97295.84;5022795;28;20485;-82
2022/11/23 04:00:47;;;;;;;3.88;3.03;;;;;;;4.18;86.13;97293.50;5022211;28;20041;-81
2022/11/23 04:03:12;;;;;;;7.10;3.13;;;;;;;4.05;86.48;97279.88;5025914;28;20524;-81
2022/11/23 04:05:38;;;;;;;4.95;2.83;;;;;;;3.99;86.73;97283.50;4986476;28;20037;-81
2022/11/23 04:08:03;;;;;;;4.35;2.63;;;;;;;4.02;86.42;97288.31;5021560;28;20562;-81
2022/11/23 04:10:29;;;;;;;6.60;2.95;;;;;;;4.03;86.12;97309.16;5003055;28;20048;-81
2022/11/23 04:12:54;;;;;;;3.22;2.80;;;;;;;4.01;86.72;97311.25;5023309;28;20040;-81
2022/11/23 04:15:19;;;;;;;8.10;3.28;;;;;;;3.89;86.46;97286.00;5004491;28;20052;-81
2022/11/23 04:17:45;;;;;;;10.23;3.22;;;;;;;3.93;86.97;97292.41;5023976;28;20115;-82
2022/11/23 04:20:11;;;;;;;4.32;2.88;;;;;;;3.91;86.67;97289.97;5024852;28;20029;-81
2022/11/23 04:22:36;;;;;;;3.28;2.50;;;;;;;3.87;86.87;97283.59;5025018;28;20059;-81
2022/11/23 04:25:01;;;;;;;4.07;2.53;;;;;;;3.99;86.65;97294.88;5022081;28;20033;-81
2022/11/23 04:27:27;;;;;;;5.75;2.67;;;;;;;3.90;86.84;97277.84;5021842;28;20393;-81
2022/11/23 04:29:52;;;;;;;10.75;3.38;;;;;;;3.98;86.75;97282.69;5008504;28;20049;-81
2022/11/23 04:32:18;;;;;;;10.98;2.95;;;;;;;3.99;86.75;97278.22;5026176;28;20485;-81
2022/11/23 04:34:43;;;;;;;7.28;3.05;;;;;;;3.93;86.84;97285.28;5026454;28;20120;-81
2022/11/23 04:37:08;;;;;;;7.72;2.75;;;;;;;3.87;86.95;97273.03;5009722;28;20038;-82
2022/11/23 04:39:34;;;;;;;8.55;3.40;;;;;;;3.88;87.49;97287.84;5024945;28;20034;-82
2022/11/23 04:41:59;;;;;;;11.27;4.35;;;;;;;3.90;87.84;97283.13;5002645;28;20038;-82
2022/11/23 04:44:25;;;;;;;6.70;3.22;;;;;;;3.90;87.70;97298.97;5020042;28;20095;-82
2022/11/23 04:46:51;;;;;;;5.50;2.53;;;;;;;4.07;87.29;97293.63;5018853;28;20033;-81
2022/11/23 04:49:16;;;;;;;7.40;2.95;;;;;;;4.02;86.87;97286.44;5018336;28;20041;-81
2022/11/23 04:51:42;;;;;;;6.68;3.28;;;;;;;4.13;86.68;97282.09;5022168;28;20021;-81
2022/11/23 04:54:07;;;;;;;7.82;2.90;;;;;;;4.19;87.25;97291.69;5003177;28;20223;-82
2022/11/23 04:56:33;;;;;;;3.15;2.78;;;;;;;4.01;87.11;97281.41;5016121;28;20053;-82
2022/11/23 04:58:58;;;;;;;8.73;3.17;;;;;;;3.90;87.25;97272.56;5024040;28;20059;-81
2022/11/23 05:01:24;;;;;;;7.45;3.58;;;;;;;3.95;87.35;97272.66;5015595;28;20761;-81
2022/11/23 05:03:49;;;;;;;7.07;3.28;;;;;;;4.01;88.13;97284.06;5020443;28;20060;-81
2022/11/23 05:06:14;;;;;;;9.60;2.80;;;;;;;4.09;87.97;97281.78;5016295;28;20029;-81
2022/11/23 05:08:41;;;;;;;8.20;3.10;;;;;;;4.08;88.52;97292.59;5020798;28;20041;-81
2022/11/23 05:11:06;;;;;;;10.43;3.30;;;;;;;4.02;88.32;97283.78;5016669;28;20568;-81
2022/11/23 05:13:32;;;;;;;7.05;3.28;;;;;;;3.99;88.44;97273.75;4994028;28;20029;-81
2022/11/23 05:15:57;;;;;;;5.45;3.13;;;;;;;4.22;87.68;97312.28;5019552;28;20112;-81
2022/11/23 05:18:22;;;;;;;7.22;3.00;;;;;;;4.21;88.03;97294.88;5023416;28;20037;-81
2022/11/23 05:20:48;;;;;;;6.15;3.17;;;;;;;4.12;87.93;97291.06;5009364;28;20036;-81
2022/11/23 05:23:13;;;;;;;5.50;2.50;;;;;;;4.11;88.27;97298.16;5002232;28;20037;-81
2022/11/23 05:25:39;;;;;;;7.40;3.53;;;;;;;4.22;88.24;97309.66;5017534;28;20028;-82
2022/11/23 05:28:04;;;;;;;6.15;3.45;;;;;;;4.28;87.64;97304.19;5020054;28;20446;-82
2022/11/23 05:30:30;;;;;;;6.00;2.70;;;;;;;4.28;87.35;97304.19;4984978;28;20045;-82
2022/11/23 05:33:00;;;;;;;9.38;3.10;;;;;;;4.14;89.04;97310.09;5013078;28;21640;-81
2022/11/23 05:35:26;;;;;;;4.78;2.55;;;;;;;4.08;88.68;97287.31;5019473;28;20064;-82
2022/11/23 05:37:51;;;;;;;8.07;3.00;;;;;;;4.36;88.82;97319.63;5016242;28;20041;-82
2022/11/23 05:40:17;;;;;;;5.82;2.95;;;;;;;4.35;87.65;97302.16;4990292;28;20040;-81
2022/11/23 05:42:42;;;;;;;10.27;2.72;;;;;;;4.29;87.42;97310.28;5010151;28;20169;-81
2022/11/23 05:45:08;;;;;;;34.00;18.52;;;;;;;4.33;87.90;97314.81;5023936;28;20033;-82
2022/11/23 05:47:33;;;;;;;5.88;3.03;;;;;;;4.49;87.08;97318.44;5013171;28;20076;-82
2022/11/23 05:49:59;;;;;;;17.27;4.80;;;;;;;4.42;86.94;97318.63;5009280;28;20033;-82
2022/11/23 05:52:25;;;;;;;4.53;3.08;;;;;;;4.33;88.23;97301.63;5011012;28;20025;-82
2022/11/23 05:54:50;;;;;;;9.60;2.90;;;;;;;4.43;87.19;97296.44;5020807;28;20516;-81
2022/11/23 05:57:16;;;;;;;6.72;2.72;;;;;;;4.63;87.21;97322.28;5028261;28;20030;-82
2022/11/23 05:59:42;;;;;;;4.85;2.65;;;;;;;4.69;86.78;97323.16;5021550;28;20128;-82
2022/11/23 06:02:07;;;;;;;4.70;3.00;;;;;;;4.58;87.25;97306.41;5015447;28;20393;-82
2022/11/23 06:04:33;;;;;;;4.13;2.40;;;;;;;4.46;87.70;97311.81;5008477;28;20038;-82
2022/11/23 06:06:59;;;;;;;8.18;2.58;;;;;;;4.57;87.77;97321.44;5023305;28;20458;-82
2022/11/23 06:09:26;;;;;;;4.05;2.53;;;;;;;4.57;87.53;97326.72;5023992;28;20112;-82
2022/11/23 06:11:52;;;;;;;6.35;2.40;;;;;;;4.43;88.27;97304.38;5024201;28;20533;-82
2022/11/23 06:14:17;;;;;;;13.23;2.90;;;;;;;4.61;87.29;97327.03;5026432;28;20021;-82
2022/11/23 06:16:42;;;;;;;7.35;2.58;;;;;;;4.54;87.99;97308.72;5020753;28;20027;-82
2022/11/23 06:19:08;;;;;;;8.82;2.95;;;;;;;4.53;87.57;97306.34;5023420;28;20025;-82
2022/11/23 06:21:33;;;;;;;5.20;2.50;;;;;;;4.62;88.05;97327.81;5008864;28;20069;-82
2022/11/23 06:23:58;;;;;;;5.13;2.67;;;;;;;4.61;88.51;97323.59;5019445;28;20037;-82
2022/11/23 06:26:24;;;;;;;6.90;3.17;;;;;;;4.56;88.37;97327.75;5030850;28;20061;-82
2022/11/23 06:28:50;;;;;;;3.72;2.95;;;;;;;4.61;88.01;97318.31;5028908;28;20036;-82
2022/11/23 06:31:15;;;;;;;4.15;2.08;;;;;;;4.52;88.06;97308.16;5011789;28;20029;-81
2022/11/23 06:33:40;;;;;;;8.02;2.70;;;;;;;4.63;88.41;97329.44;4991467;28;20029;-82
2022/11/23 06:36:06;;;;;;;10.35;2.92;;;;;;;4.48;88.20;97307.06;5030275;28;20477;-82
2022/11/23 06:38:32;;;;;;;11.52;3.47;;;;;;;4.56;88.16;97322.47;5008888;28;20125;-82
2022/11/23 06:41:00;;;;;;;5.82;2.60;;;;;;;4.63;88.25;97317.00;5029524;28;20029;-81
2022/11/23 06:43:27;;;;;;;10.68;3.20;;;;;;;4.61;88.20;97334.16;5021720;28;20030;-81
2022/11/23 06:45:54;;;;;;;9.63;3.00;;;;;;;4.62;88.98;97341.84;5025354;28;20033;-81
2022/11/23 06:48:19;;;;;;;7.90;2.60;;;;;;;4.63;88.49;97340.00;5030730;28;20529;-81
2022/11/23 06:50:45;;;;;;;12.88;2.95;;;;;;;4.54;89.64;97329.84;5024723;28;20037;-81
2022/11/23 06:53:13;;;;;;;7.65;2.90;;;;;;;4.61;88.23;97329.66;5008479;28;20261;-81
2022/11/23 06:55:39;;;;;;;8.57;2.67;;;;;;;4.74;87.93;97349.66;5023941;28;20097;-81
2022/11/23 06:58:05;;;;;;;5.88;2.80;;;;;;;4.78;87.57;97354.19;5012191;28;20053;-81
2022/11/23 07:00:31;;;;;;;13.13;3.20;;;;;;;4.74;87.72;97354.94;5028080;28;20489;-81
2022/11/23 07:02:57;;;;;;;8.15;3.83;;;;;;;4.32;89.25;97320.34;5031504;28;20029;-81
2022/11/23 07:05:23;;;;;;;11.75;4.50;;;;;;;4.64;88.70;97360.88;5031880;28;20029;-81
2022/11/23 07:07:48;;;;;;;8.98;2.97;;;;;;;4.68;88.45;97363.81;5027423;28;20045;-81
2022/11/23 07:10:14;;;;;;;10.15;3.58;;;;;;;4.73;87.01;97337.47;5030786;28;20025;-81
2022/11/23 07:12:39;;;;;;;9.82;3.10;;;;;;;4.65;87.84;97354.56;5014068;28;20056;-81
2022/11/23 07:15:06;;;;;;;5.47;2.42;;;;;;;4.86;87.36;97364.31;5026495;28;20371;-81
2022/11/23 07:17:32;;;;;;;4.90;2.75;;;;;;;4.90;87.84;97372.53;5012124;28;20045;-81
2022/11/23 07:19:57;;;;;;;13.75;3.80;;;;;;;4.92;87.10;97370.44;5022607;28;20041;-81
2022/11/23 07:22:22;;;;;;;8.02;3.33;;;;;;;4.88;86.61;97353.47;5029204;28;20029;-81
2022/11/23 07:24:48;;;;;;;8.52;3.55;;;;;;;4.87;87.46;97370.41;5031026;28;20029;-81
2022/11/23 07:27:15;;;;;;;5.70;3.78;;;;;;;4.92;86.38;97351.94;5025756;28;20061;-81
2022/11/23 07:29:41;;;;;;;6.03;2.47;;;;;;;5.01;86.69;97355.72;5029228;28;20868;-81
2022/11/23 07:32:07;;;;;;;10.70;3.85;;;;;;;4.86;87.79;97355.56;5010641;28;20120;-82
2022/11/23 07:34:32;;;;;;;19.35;8.27;;;;;;;4.71;89.28;97364.16;4993577;28;20120;-81
2022/11/23 07:36:58;;;;;;;9.48;4.72;;;;;;;4.61;92.36;97379.88;5007094;28;20104;-81
2022/11/23 07:39:23;;;;;;;14.48;7.60;;;;;;;4.44;93.26;97385.22;5011057;28;20030;-81
2022/11/23 07:41:49;;;;;;;15.77;6.57;;;;;;;4.22;94.36;97371.19;5030861;28;20053;-81
2022/11/23 07:44:14;;;;;;;17.15;5.15;;;;;;;4.40;94.65;97383.31;5013725;28;20121;-81
2022/11/23 07:46:40;;;;;;;9.27;3.63;;;;;;;4.67;91.37;97388.66;5000157;28;20026;-81
2022/11/23 07:49:05;;;;;;;6.30;3.20;;;;;;;4.84;87.97;97369.06;5012985;28;20378;-81
2022/11/23 07:51:31;;;;;;;7.22;4.28;;;;;;;4.86;87.80;97374.88;4995891;28;20052;-81
2022/11/23 07:53:56;;;;;;;3.72;3.13;;;;;;;5.00;87.45;97391.94;5016362;28;20077;-81
2022/11/23 07:56:22;;;;;;;7.53;3.25;;;;;;;4.86;88.70;97387.28;5018865;28;20025;-81
2022/11/23 07:58:47;;;;;;;7.38;3.15;;;;;;;4.90;88.99;97381.28;5025825;28;20044;-81
2022/11/23 08:01:16;;;;;;;16.27;8.05;;;;;;;4.82;89.31;97375.63;4999855;28;20056;-81
2022/11/23 08:03:43;;;;;;;7.47;4.38;;;;;;;4.88;89.18;97378.06;5031759;28;20033;-81
2022/11/23 08:06:08;;;;;;;6.30;4.07;;;;;;;5.11;87.36;97390.22;5004128;28;20588;-81
2022/11/23 08:08:35;;;;;;;9.90;3.03;;;;;;;5.00;87.72;97391.16;5025151;28;20025;-81
2022/11/23 08:11:00;;;;;;;9.05;4.40;;;;;;;5.03;87.46;97386.16;5010448;28;20030;-81
2022/11/23 08:13:26;;;;;;;6.50;3.53;;;;;;;5.05;88.20;97383.25;5025184;28;20035;-81
2022/11/23 08:15:51;;;;;;;6.78;3.20;;;;;;;5.03;88.40;97388.00;5007581;28;20096;-81
2022/11/23 08:18:16;;;;;;;6.82;3.88;;;;;;;5.03;87.78;97380.06;5025808;28;20042;-81
2022/11/23 08:20:42;;;;;;;6.22;3.30;;;;;;;5.03;87.65;97372.13;5027485;28;20048;-81
2022/11/23 08:23:07;;;;;;;4.53;3.42;;;;;;;5.16;87.43;97387.59;5010841;28;20591;-81
2022/11/23 08:25:33;;;;;;;7.40;3.35;;;;;;;5.19;87.73;97392.41;4994313;28;20501;-82
2022/11/23 08:28:01;;;;;;;4.93;3.80;;;;;;;5.10;87.70;97383.31;5026388;28;20029;-81
2022/11/23 08:30:27;;;;;;;5.75;3.63;;;;;;;5.24;87.33;97393.25;5025560;28;20163;-81
2022/11/23 08:32:53;;;;;;;12.40;6.22;;;;;;;5.19;87.59;97377.34;5022089;28;20021;-81
2022/11/23 08:35:18;;;;;;;7.70;3.92;;;;;;;5.13;88.44;97391.56;5035215;28;20044;-81
2022/11/23 08:37:44;;;;;;;7.28;4.32;;;;;;;5.18;87.93;97388.16;5022206;28;20026;-81
2022/11/23 08:40:10;;;;;;;7.53;3.78;;;;;;;5.26;87.88;97395.66;5003532;28;20041;-81
2022/11/23 08:42:35;;;;;;;8.52;3.92;;;;;;;5.29;87.76;97408.38;5022758;28;20025;-81
2022/11/23 08:45:03;;;;;;;11.25;5.47;;;;;;;5.37;87.43;97399.19;5007858;28;20042;-81
2022/11/23 08:47:29;;;;;;;10.23;4.28;;;;;;;5.29;87.49;97387.22;5027559;28;20025;-81
2022/11/23 08:49:55;;;;;;;5.50;3.50;;;;;;;5.37;87.12;97389.44;5029778;28;20025;-81
2022/11/23 08:52:20;;;;;;;12.57;6.55;;;;;;;5.27;89.11;97399.88;5022906;28;20025;-81
2022/11/23 08:54:45;;;;;;;8.05;3.90;;;;;;;5.30;87.74;97386.97;5026777;28;20039;-81
2022/11/23 08:57:11;;;;;;;6.60;3.10;;;;;;;5.33;87.52;97396.25;5020939;28;20116;-82
2022/11/23 08:59:36;;;;;;;104.25;38.90;;;;;;;5.32;89.15;97400.75;5019977;28;20456;-81
2022/11/23 09:02:02;;;;;;;411.08;128.23;;;;;;;5.36;90.60;97408.97;5007707;28;20064;-82
2022/11/23 09:04:29;;;;;;;29.70;11.60;;;;;;;5.54;87.92;97402.53;5010304;28;21710;-81
2022/11/23 09:06:55;;;;;;;13.77;6.47;;;;;;;5.46;89.62;97409.06;5022449;28;20028;-81
2022/11/23 09:09:20;;;;;;;21.35;7.13;;;;;;;5.57;87.95;97405.47;5027251;28;20029;-81
2022/11/23 09:11:45;;;;;;;19.50;6.60;;;;;;;5.57;88.03;97391.44;5027346;28;20029;-81
2022/11/23 09:14:11;;;;;;;11.45;6.00;;;;;;;5.56;88.50;97409.16;4991367;28;20388;-81
2022/11/23 09:16:36;;;;;;;17.02;7.50;;;;;;;5.46;90.67;97398.47;5002574;28;20152;-81
2022/11/23 09:19:02;;;;;;;14.93;6.72;;;;;;;5.50;89.71;97399.59;5005201;28;20040;-81
2022/11/23 09:21:32;;;;;;;13.15;5.65;;;;;;;5.63;89.93;97416.91;5008643;28;20025;-81
2022/11/23 09:23:57;;;;;;;9.05;4.75;;;;;;;5.62;90.30;97392.28;5019830;28;20037;-81
2022/11/23 09:26:23;;;;;;;15.85;4.63;;;;;;;5.86;87.55;97401.50;5000690;28;20029;-81
2022/11/23 09:28:48;;;;;;;12.50;5.15;;;;;;;5.86;87.69;97412.09;4986829;28;20169;-81
2022/11/23 09:31:14;;;;;;;9.43;4.95;;;;;;;5.90;87.29;97412.38;5020510;28;20118;-82
2022/11/23 09:33:39;;;;;;;11.70;4.70;;;;;;;5.93;87.20;97410.03;5019628;28;20033;-82
2022/11/23 09:36:05;;;;;;;8.45;4.43;;;;;;;5.86;89.84;97406.78;5020831;28;20033;-81
2022/11/23 09:38:30;;;;;;;12.35;5.57;;;;;;;6.01;87.79;97411.41;5024162;28;20063;-81
2022/11/23 09:41:35;;;;;;;8.18;3.80;;;;;;;5.85;91.16;97413.13;5027140;28;20061;-81
2022/11/23 09:44:07;;;;;;;10.95;4.65;;;;;;;6.00;86.93;97404.53;5022002;28;20042;-82
2022/11/23 09:46:47;;;;;;;9.02;4.20;;;;;;;5.95;88.09;97402.63;5023104;28;20025;-81
2022/11/23 09:49:20;;;;;;;7.88;3.83;;;;;;;6.07;86.80;97415.69;5028254;28;20192;-81
2022/11/23 09:51:46;;;;;;;11.65;4.78;;;;;;;6.09;87.34;97421.53;5001972;28;20120;-82
2022/11/23 09:54:24;;;;;;;14.27;5.68;;;;;;;6.00;86.90;97405.31;5023878;28;20469;-82
2022/11/23 09:56:53;;;;;;;8.07;4.05;;;;;;;6.05;86.70;97401.88;5026674;28;20022;-81
2022/11/23 09:59:43;;;;;;;12.05;3.70;;;;;;;6.01;87.32;97417.50;5005542;28;20029;-81
2022/11/23 10:02:20;;;;;;;12.25;4.72;;;;;;;5.89;88.62;97419.53;5019959;28;20378;-81
2022/11/23 10:04:45;;;;;;;8.55;4.30;;;;;;;5.98;87.93;97419.88;5019844;28;20478;-81
2022/11/23 10:07:48;;;;;;;9.63;3.92;;;;;;;5.98;89.40;97418.00;5018283;28;20069;-81
2022/11/23 10:10:42;;;;;;;7.28;3.70;;;;;;;6.13;86.32;97408.56;5027472;28;20044;-81
2022/11/23 10:13:19;;;;;;;4.90;3.13;;;;;;;6.05;88.76;97415.94;5022906;28;20362;-81
2022/11/23 10:15:57;;;;;;;10.20;3.30;;;;;;;5.98;89.71;97427.81;5024177;28;20122;-81
2022/11/23 10:18:33;;;;;;;9.18;3.58;;;;;;;5.88;90.43;97417.13;5020197;28;20025;-81
2022/11/23 10:21:10;;;;;;;8.48;3.60;;;;;;;5.91;88.91;97404.19;5021422;28;20029;-81
2022/11/23 10:24:07;;;;;;;6.10;3.55;;;;;;;6.07;87.72;97407.75;5020903;28;20029;-81
2022/11/23 10:26:37;;;;;;;6.45;3.22;;;;;;;6.14;88.00;97404.88;5020667;28;20025;-82
2022/11/23 10:29:21;;;;;;;10.43;3.75;;;;;;;6.34;87.31;97427.00;5019797;28;20386;-81
2022/11/23 10:31:48;;;;;;;6.90;3.33;;;;;;;6.27;86.50;97422.97;5024467;28;20033;-81
2022/11/23 10:34:20;;;;;;;11.60;3.15;;;;;;;6.21;88.31;97411.53;5021966;28;20029;-81
2022/11/23 10:36:45;;;;;;;9.20;3.75;;;;;;;6.29;88.29;97420.88;5026196;28;20040;-81
2022/11/23 10:39:22;;;;;;;8.93;3.70;;;;;;;6.39;87.70;97415.63;5026647;28;20037;-81
2022/11/23 10:41:51;;;;;;;17.77;8.75;;;;;;;6.51;87.64;97417.00;5022622;28;20120;-81
2022/11/23 10:44:17;;;;;;;6.78;4.05;;;;;;;6.64;87.51;97416.53;5023823;28;20029;-81
2022/11/23 10:46:43;;;;;;;15.05;4.90;;;;;;;6.57;87.78;97405.41;5021057;28;20029;-81
2022/11/23 10:49:23;;;;;;;15.32;4.28;;;;;;;6.90;87.24;97419.31;5025193;28;20021;-81
2022/11/23 10:51:50;;;;;;;10.05;3.10;;;;;;;7.08;85.75;97416.97;5028525;28;20108;-82
2022/11/23 10:54:23;;;;;;;8.40;3.15;;;;;;;7.19;85.04;97405.34;5027033;28;20080;-82
2022/11/23 10:56:51;;;;;;;3.67;3.00;;;;;;;7.17;85.52;97415.44;5024489;28;20033;-81
2022/11/23 10:59:30;;;;;;;13.25;3.35;;;;;;;7.10;85.30;97414.09;5024365;28;20029;-82
2022/11/23 11:02:02;;;;;;;7.20;3.47;;;;;;;7.22;84.44;97396.88;5023463;28;20103;-81
2022/11/23 11:04:28;;;;;;;9.75;3.17;;;;;;;7.28;84.87;97410.94;5020619;28;20022;-82
2022/11/23 11:07:15;;;;;;;12.02;4.45;;;;;;;7.30;85.23;97406.16;5021557;28;20356;-81
2022/11/23 11:09:41;;;;;;;9.05;2.90;;;;;;;6.97;85.79;97388.06;5041263;28;20028;-82
2022/11/23 11:12:16;;;;;;;11.00;3.90;;;;;;;7.15;86.14;97398.16;5011103;28;20460;-82
2022/11/23 11:14:56;;;;;;;7.38;3.63;;;;;;;7.34;84.84;97394.75;5007739;28;20132;-82
2022/11/23 11:17:27;;;;;;;9.98;4.20;;;;;;;7.38;85.51;97403.78;5023100;28;20111;-83
2022/11/23 11:19:52;;;;;;;6.93;3.17;;;;;;;7.40;84.86;97396.34;5026928;28;20470;-82
2022/11/23 11:22:28;;;;;;;11.07;3.38;;;;;;;7.42;84.97;97396.91;5025064;28;20070;-82
2022/11/23 11:24:54;;;;;;;;;;;;;;;7.40;84.63;97396.34;5025074;28;20029;-82
2022/11/23 11:27:21;;;;;;;12.17;3.27;;;;;;;7.25;85.20;97380.41;5031215;28;19913;-82
2022/11/23 11:29:50;;;;;;;9.38;3.22;;;;;;;7.34;84.43;97397.41;5019473;28;20026;-82
2022/11/23 11:32:30;;;;;;;8.52;3.80;;;;;;;7.43;84.71;97387.88;5030500;28;20084;-82
2022/11/23 11:35:27;;;;;;;8.20;3.10;;;;;;;7.49;83.70;97388.69;5028057;28;20032;-82
2022/11/23 11:37:59;;;;;;;36.25;20.13;;;;;;;7.23;84.58;97368.50;5021439;28;20572;-82
2022/11/23 11:40:32;;;;;;;11.88;4.88;;;;;;;7.37;84.27;97380.97;5028069;28;20084;-82